Time;durP1;ratioP1;P1;durP2;ratioP2;P2;SDS_P1;SDS_P2;PMS_P1;PMS_P2;Temp;Humidity;BMP_temperature;BMP_pressure;BME280_temperature;BME280_humidity;BME280_pressure;Samples;Min_cycle;Max_cycle;Signal;HPM_P1;HPM_P2
2022/08/08 00:01:58;;;;;;;6.93;3.15;;;;;;;;;;10196574;29;20047;-78
2022/08/08 00:07:27;;;;;;;4.47;3.00;;;;;;;;;;10188476;29;20039;-78
2022/08/08 00:12:34;;;;;;;4.78;3.17;;;;;;;;;;10198502;29;20571;-78
2022/08/08 00:17:40;;;;;;;5.78;2.95;;;;;;;;;;10196341;29;20139;-79
2022/08/08 00:23:06;;;;;;;4.68;3.03;;;;;;;;;;10199655;29;20044;-79
2022/08/08 00:28:18;;;;;;;4.38;2.83;;;;;;;;;;10195308;29;20051;-78
2022/08/08 00:33:43;;;;;;;4.70;3.08;;;;;;;;;;10198238;29;20072;-78
2022/08/08 00:39:09;;;;;;;4.75;3.03;;;;;;;;;;10199392;29;20525;-78
2022/08/08 00:44:50;;;;;;;4.57;2.72;;;;;;;;;;10197620;29;20040;-80
2022/08/08 00:50:14;;;;;;;5.43;3.28;;;;;;;;;;10200805;29;20492;-80
2022/08/08 00:55:30;;;;;;;8.15;3.50;;;;;;;;;;10213380;28;20126;-80
2022/08/08 01:00:57;;;;;;;5.45;3.72;;;;;;;;;;10192169;29;20087;-80
2022/08/08 01:06:34;;;;;;;4.80;3.15;;;;;;;;;;10196159;29;20047;-80
2022/08/08 01:12:10;;;;;;;4.70;3.47;;;;;;;;;;10199610;29;20114;-78
2022/08/08 01:17:42;;;;;;;5.43;3.75;;;;;;;;;;10197861;29;20059;-78
2022/08/08 01:23:19;;;;;;;5.63;3.35;;;;;;;;;;10222303;28;20040;-79
2022/08/08 01:29:32;;;;;;;4.97;3.38;;;;;;;;;;10199527;29;20102;-79
2022/08/08 01:35:14;;;;;;;5.10;3.53;;;;;;;;;;10135720;28;20059;-81
2022/08/08 01:40:23;;;;;;;6.80;4.13;;;;;;;;;;10195166;29;20044;-81
2022/08/08 01:45:42;;;;;;;5.57;3.83;;;;;;;;;;10207103;29;20412;-81
2022/08/08 01:50:52;;;;;;;5.88;4.00;;;;;;;;;;10206491;29;20040;-81
2022/08/08 01:56:01;;;;;;;5.82;3.72;;;;;;;;;;10206850;29;20058;-79
2022/08/08 02:01:26;;;;;;;6.40;4.05;;;;;;;;;;10209241;29;20070;-78
2022/08/08 02:06:55;;;;;;;4.78;3.30;;;;;;;;;;10198583;29;20606;-80
2022/08/08 02:12:03;;;;;;;6.57;4.05;;;;;;;;;;10207164;29;20577;-79
2022/08/08 02:17:12;;;;;;;5.35;3.72;;;;;;;;;;10201698;29;20099;-79
2022/08/08 02:22:33;;;;;;;5.82;3.75;;;;;;;;;;10202908;29;20040;-80
2022/08/08 02:27:58;;;;;;;6.25;3.70;;;;;;;;;;10227033;28;20067;-80
2022/08/08 02:33:13;;;;;;;6.68;3.83;;;;;;;;;;10205118;29;20414;-80
2022/08/08 02:38:25;;;;;;;4.93;3.65;;;;;;;;;;10201035;29;20404;-81
2022/08/08 02:43:43;;;;;;;5.18;3.53;;;;;;;;;;10206495;29;20099;-79
2022/08/08 02:49:25;;;;;;;5.95;3.30;;;;;;;;;;10204893;29;20050;-79
2022/08/08 02:55:06;;;;;;;6.22;3.78;;;;;;;;;;10198446;29;20126;-79
2022/08/08 03:00:46;;;;;;;7.55;4.15;;;;;;;;;;10225441;28;20044;-79
2022/08/08 03:06:03;;;;;;;6.45;4.03;;;;;;;;;;10195114;28;20110;-79
2022/08/08 03:11:27;;;;;;;5.68;3.53;;;;;;;;;;10202386;29;20044;-80
2022/08/08 03:16:52;;;;;;;4.85;3.30;;;;;;;;;;10198401;29;20131;-79
2022/08/08 03:21:56;;;;;;;6.38;4.20;;;;;;;;;;10199270;29;20457;-78
2022/08/08 03:27:08;;;;;;;6.68;4.18;;;;;;;;;;10202583;29;20083;-79
2022/08/08 03:37:36;;;;;;;9.68;4.05;;;;;;;;;;10200223;29;20051;-79
2022/08/08 03:43:00;;;;;;;7.80;4.30;;;;;;;;;;10201561;29;20134;-78
2022/08/08 03:48:21;;;;;;;7.05;4.60;;;;;;;;;;10201445;29;20485;-79
2022/08/08 03:53:44;;;;;;;7.78;5.13;;;;;;;;;;10200073;29;20048;-80
2022/08/08 03:58:51;;;;;;;7.25;5.15;;;;;;;;;;10198686;29;20139;-79
2022/08/08 04:03:54;;;;;;;9.85;6.10;;;;;;;;;;10199706;29;20485;-79
2022/08/08 04:09:05;;;;;;;8.63;5.10;;;;;;;;;;10195588;29;20283;-80
2022/08/08 04:14:15;;;;;;;11.95;5.20;;;;;;;;;;10199632;29;20473;-81
2022/08/08 04:19:56;;;;;;;10.52;5.20;;;;;;;;;;10203551;29;20441;-81
2022/08/08 04:25:19;;;;;;;8.57;5.53;;;;;;;;;;10196605;29;20063;-80
2022/08/08 04:30:43;;;;;;;9.63;4.97;;;;;;;;;;10200036;29;20044;-79
2022/08/08 04:36:06;;;;;;;11.07;5.30;;;;;;;;;;10199278;29;20519;-79
2022/08/08 04:41:29;;;;;;;9.05;5.38;;;;;;;;;;10200495;29;20043;-79
2022/08/08 04:46:59;;;;;;;8.27;4.78;;;;;;;;;;10193628;29;20412;-78
2022/08/08 04:52:22;;;;;;;8.50;5.00;;;;;;;;;;10199503;29;20561;-79
2022/08/08 04:57:46;;;;;;;9.43;5.15;;;;;;;;;;10196608;29;20066;-80
2022/08/08 05:03:14;;;;;;;10.00;5.63;;;;;;;;;;10198540;29;20052;-80
2022/08/08 05:08:38;;;;;;;10.13;5.65;;;;;;;;;;10198531;29;20571;-79
2022/08/08 05:13:43;;;;;;;9.15;5.22;;;;;;;;;;10197470;29;20047;-79
2022/08/08 05:19:02;;;;;;;8.18;5.25;;;;;;;;;;10193132;29;20055;-79
2022/08/08 05:24:07;;;;;;;8.30;5.07;;;;;;;;;;10196810;29;20039;-79
2022/08/08 05:29:12;;;;;;;9.00;4.80;;;;;;;;;;10213861;28;20044;-80
2022/08/08 05:34:24;;;;;;;9.20;4.82;;;;;;;;;;10190021;29;20055;-81
2022/08/08 05:39:28;;;;;;;9.32;4.85;;;;;;;;;;10217570;28;20048;-80
2022/08/08 05:44:43;;;;;;;7.35;4.57;;;;;;;;;;10201464;29;20264;-79
2022/08/08 05:49:49;;;;;;;7.80;4.35;;;;;;;;;;10195528;29;20131;-79
2022/08/08 05:54:57;;;;;;;8.85;4.10;;;;;;;;;;10192573;29;20421;-79
2022/08/08 06:00:11;;;;;;;8.93;4.30;;;;;;;;;;10196021;29;20043;-80
2022/08/08 06:05:30;;;;;;;6.50;4.30;;;;;;;;;;10195957;29;20040;-79
2022/08/08 06:10:38;;;;;;;7.07;4.03;;;;;;;;;;10196781;29;20039;-78
2022/08/08 06:15:45;;;;;;;7.20;4.05;;;;;;;;;;10194108;29;20339;-77
2022/08/08 06:20:58;;;;;;;9.60;3.77;;;;;;;;;;10195738;29;20032;-80
2022/08/08 06:26:13;;;;;;;5.75;3.30;;;;;;;;;;10196305;29;20047;-81
2022/08/08 06:31:38;;;;;;;7.30;3.53;;;;;;;;;;10203017;29;20035;-79
2022/08/08 06:37:03;;;;;;;6.05;4.18;;;;;;;;;;10201657;29;20078;-78
2022/08/08 06:42:28;;;;;;;6.20;3.65;;;;;;;;;;10203054;29;20126;-80
2022/08/08 06:47:32;;;;;;;9.90;4.32;;;;;;;;;;10205627;29;20043;-79
2022/08/08 06:52:57;;;;;;;5.45;2.92;;;;;;;;;;10202392;29;20040;-78
2022/08/08 06:58:00;;;;;;;5.85;3.70;;;;;;;;;;10206470;29;20541;-79
2022/08/08 07:03:08;;;;;;;6.07;3.80;;;;;;;;;;10200605;29;20046;-79
2022/08/08 07:08:38;;;;;;;6.35;3.80;;;;;;;;;;10201279;29;20083;-79
2022/08/08 07:13:43;;;;;;;8.45;3.78;;;;;;;;;;10205565;29;20035;-79
2022/08/08 07:19:05;;;;;;;7.00;3.72;;;;;;;;;;10201159;29;20074;-79
2022/08/08 07:24:13;;;;;;;5.70;3.40;;;;;;;;;;10199737;29;20040;-79
2022/08/08 07:29:17;;;;;;;5.18;3.60;;;;;;;;;;10203772;29;20075;-79
2022/08/08 07:34:41;;;;;;;4.25;3.35;;;;;;;;;;10197940;29;20386;-80
2022/08/08 07:40:03;;;;;;;;;;;;;;;;;;10200782;29;20493;-79
2022/08/08 07:45:09;;;;;;;5.90;3.88;;;;;;;;;;10197676;29;19923;-79
2022/08/08 07:50:15;;;;;;;4.15;2.88;;;;;;;;;;10202250;29;20050;-80
2022/08/08 07:55:26;;;;;;;3.28;2.97;;;;;;;;;;10202883;29;20043;-79
2022/08/08 08:00:36;;;;;;;3.15;2.85;;;;;;;;;;10199868;29;20040;-79
2022/08/08 08:05:43;;;;;;;4.70;3.00;;;;;;;;;;10203474;29;20047;-80
2022/08/08 08:10:55;;;;;;;3.25;2.78;;;;;;;;;;10223375;28;20529;-80
2022/08/08 08:16:02;;;;;;;2.92;2.58;;;;;;;;;;10200543;29;20102;-80
2022/08/08 08:21:07;;;;;;;3.90;2.80;;;;;;;;;;10224210;28;20472;-80
2022/08/08 08:26:21;;;;;;;5.53;2.55;;;;;;;;;;10196427;29;20792;-81
2022/08/08 08:31:30;;;;;;;4.85;2.92;;;;;;;;;;10221913;28;20129;-80
2022/08/08 08:36:44;;;;;;;5.13;2.78;;;;;;;;;;10193546;29;20296;-81
2022/08/08 08:41:53;;;;;;;7.50;2.88;;;;;;;;;;10198728;29;20061;-80
2022/08/08 08:47:02;;;;;;;4.97;3.00;;;;;;;;;;10198061;29;20055;-80
2022/08/08 08:52:11;;;;;;;6.45;2.90;;;;;;;;;;10201446;29;20443;-82
2022/08/08 08:57:16;;;;;;;3.92;2.78;;;;;;;;;;10198536;29;20130;-80
2022/08/08 09:02:23;;;;;;;3.45;2.85;;;;;;;;;;10200218;29;20126;-82
2022/08/08 09:07:28;;;;;;;3.73;2.87;;;;;;;;;;10196621;29;20359;-81
2022/08/08 09:12:52;;;;;;;3.15;2.90;;;;;;;;;;10202740;29;20046;-80
2022/08/08 09:17:57;;;;;;;3.53;2.97;;;;;;;;;;10196885;29;20552;-81
2022/08/08 09:23:01;;;;;;;3.40;2.90;;;;;;;;;;10197973;29;20122;-81
2022/08/08 09:28:06;;;;;;;2.67;2.47;;;;;;;;;;10200211;29;20275;-81
2022/08/08 09:33:15;;;;;;;4.22;3.08;;;;;;;;;;10201853;29;20054;-81
2022/08/08 09:38:41;;;;;;;3.35;2.80;;;;;;;;;;10197893;29;20143;-80
2022/08/08 09:43:59;;;;;;;4.15;2.63;;;;;;;;;;10194992;29;20049;-81
2022/08/08 09:49:19;;;;;;;3.38;3.05;;;;;;;;;;10197964;29;20032;-81
2022/08/08 09:54:43;;;;;;;3.13;2.75;;;;;;;;;;10199210;29;20040;-81
2022/08/08 09:59:49;;;;;;;6.95;3.30;;;;;;;;;;10195102;29;20493;-81
2022/08/08 10:05:16;;;;;;;5.05;2.88;;;;;;;;;;10206417;29;20118;-81
2022/08/08 10:10:27;;;;;;;3.47;3.20;;;;;;;;;;10203222;29;20044;-81
2022/08/08 10:15:36;;;;;;;4.68;3.13;;;;;;;;;;10204452;29;20035;-81
2022/08/08 10:20:43;;;;;;;5.38;2.97;;;;;;;;;;10203641;29;20073;-81
2022/08/08 10:26:03;;;;;;;5.20;2.35;;;;;;;;;;10202700;29;20047;-81
2022/08/08 10:36:51;;;;;;;3.08;2.30;;;;;;;;;;10204680;29;20096;-81
2022/08/08 10:41:56;;;;;;;4.88;2.30;;;;;;;;;;10203716;29;20413;-82
2022/08/08 10:47:17;;;;;;;3.53;2.92;;;;;;;;;;10201843;29;20051;-81
2022/08/08 10:52:25;;;;;;;3.60;2.85;;;;;;;;;;10203035;29;20046;-81
2022/08/08 10:57:36;;;;;;;5.85;3.00;;;;;;;;;;10205114;29;20040;-81
2022/08/08 11:02:52;;;;;;;4.03;2.80;;;;;;;;;;10210877;29;20043;-82
2022/08/08 11:07:57;;;;;;;3.17;2.78;;;;;;;;;;10202575;29;20126;-81
2022/08/08 11:13:21;;;;;;;5.47;3.28;;;;;;;;;;10203555;29;20565;-82
2022/08/08 11:18:35;;;;;;;2.60;2.40;;;;;;;;;;10203634;29;20052;-82
2022/08/08 11:23:41;;;;;;;3.72;3.22;;;;;;;;;;10202139;29;20091;-81
2022/08/08 11:28:45;;;;;;;3.42;2.70;;;;;;;;;;10201020;29;20087;-82
2022/08/08 11:33:51;;;;;;;3.67;2.80;;;;;;;;;;10200600;29;20047;-81
2022/08/08 11:39:07;;;;;;;3.00;2.80;;;;;;;;;;10199943;29;20044;-81
2022/08/08 11:44:14;;;;;;;3.10;2.80;;;;;;;;;;10197838;29;20345;-81
2022/08/08 11:49:19;;;;;;;5.03;2.70;;;;;;;;;;10200091;29;20035;-83
2022/08/08 11:54:32;;;;;;;2.85;2.53;;;;;;;;;;10201312;29;20031;-81
2022/08/08 11:59:52;;;;;;;3.85;2.50;;;;;;;;;;10211535;28;20051;-81
2022/08/08 12:05:06;;;;;;;3.45;2.20;;;;;;;;;;10203959;29;20481;-82
2022/08/08 12:10:14;;;;;;;3.80;2.45;;;;;;;;;;10204873;29;20039;-81
2022/08/08 12:15:26;;;;;;;2.40;2.30;;;;;;;;;;10197581;29;20057;-81
2022/08/08 12:20:36;;;;;;;2.80;2.40;;;;;;;;;;10198102;29;20039;-81
2022/08/08 12:25:42;;;;;;;3.15;2.85;;;;;;;;;;10195719;29;20473;-81
2022/08/08 12:31:04;;;;;;;3.17;2.60;;;;;;;;;;10199445;29;20091;-81
2022/08/08 12:36:10;;;;;;;3.67;2.40;;;;;;;;;;10196869;29;20515;-81
2022/08/08 12:41:15;;;;;;;4.72;2.53;;;;;;;;;;10200925;29;20162;-81
2022/08/08 12:46:38;;;;;;;3.05;2.40;;;;;;;;;;10198731;29;20135;-82
2022/08/08 12:51:42;;;;;;;2.10;1.90;;;;;;;;;;10212683;28;20453;-81
2022/08/08 12:57:14;;;;;;;3.38;2.60;;;;;;;;;;10203875;29;20043;-83
2022/08/08 13:02:23;;;;;;;2.50;2.30;;;;;;;;;;10207722;29;20150;-81
2022/08/08 13:07:35;;;;;;;3.72;2.42;;;;;;;;;;10200520;29;20083;-82
2022/08/08 13:13:02;;;;;;;3.88;2.55;;;;;;;;;;10197213;29;20404;-81
2022/08/08 13:18:09;;;;;;;9.20;2.70;;;;;;;;;;10194171;29;20063;-81
2022/08/08 13:23:26;;;;;;;3.38;2.78;;;;;;;;;;10190148;29;20079;-81
2022/08/08 13:28:39;;;;;;;5.30;2.60;;;;;;;;;;10200549;29;20054;-81
2022/08/08 13:33:45;;;;;;;4.70;2.22;;;;;;;;;;10211166;29;20047;-81
2022/08/08 13:38:53;;;;;;;4.55;2.08;;;;;;;;;;10203233;29;20481;-81
2022/08/08 13:44:06;;;;;;;3.90;2.23;;;;;;;;;;10207206;29;20118;-81
2022/08/08 13:49:16;;;;;;;2.30;2.10;;;;;;;;;;10208171;29;20299;-80
2022/08/08 13:54:40;;;;;;;2.90;2.40;;;;;;;;;;10207932;29;20095;-80
2022/08/08 14:00:06;;;;;;;3.20;2.10;;;;;;;;;;10204661;29;20055;-80
2022/08/08 14:05:10;;;;;;;3.35;2.10;;;;;;;;;;10204639;29;20115;-79
2022/08/08 14:10:24;;;;;;;2.13;1.83;;;;;;;;;;10206689;29;20078;-80
2022/08/08 14:15:40;;;;;;;3.88;2.05;;;;;;;;;;10200882;29;20714;-80
2022/08/08 14:21:00;;;;;;;3.08;2.10;;;;;;;;;;10202050;29;20292;-80
2022/08/08 14:26:04;;;;;;;2.47;2.03;;;;;;;;;;10208423;29;20086;-80
2022/08/08 14:31:14;;;;;;;2.97;1.98;;;;;;;;;;10202322;29;20040;-80
2022/08/08 14:36:32;;;;;;;2.88;1.98;;;;;;;;;;10201638;29;20128;-80
2022/08/08 14:41:40;;;;;;;2.78;2.03;;;;;;;;;;10202650;29;20055;-80
2022/08/08 14:46:58;;;;;;;5.85;2.65;;;;;;;;;;10205183;29;20031;-81
2022/08/08 14:52:07;;;;;;;3.30;2.20;;;;;;;;;;10202877;29;20040;-80
2022/08/08 14:57:10;;;;;;;3.17;2.30;;;;;;;;;;10203038;29;20039;-80
2022/08/08 15:02:23;;;;;;;2.20;1.92;;;;;;;;;;10199948;29;20520;-80
2022/08/08 15:07:32;;;;;;;2.40;2.17;;;;;;;;;;10201295;29;20465;-81
2022/08/08 15:12:45;;;;;;;3.42;2.30;;;;;;;;;;10196211;29;20039;-82
2022/08/08 15:17:50;;;;;;;2.25;2.00;;;;;;;;;;10197301;29;20180;-80
2022/08/08 15:22:52;;;;;;;2.13;1.92;;;;;;;;;;10198604;29;20497;-80
2022/08/08 15:27:56;;;;;;;3.22;2.20;;;;;;;;;;10212960;29;20044;-81
2022/08/08 15:33:21;;;;;;;3.88;1.90;;;;;;;;;;10205400;28;20134;-80
2022/08/08 15:38:40;;;;;;;3.63;2.22;;;;;;;;;;10186014;29;20050;-80
2022/08/08 15:43:52;;;;;;;4.10;2.30;;;;;;;;;;10194367;29;20035;-80
2022/08/08 15:49:04;;;;;;;5.38;2.00;;;;;;;;;;10192813;29;20043;-81
2022/08/08 15:54:07;;;;;;;3.47;2.30;;;;;;;;;;10194000;29;20568;-81
2022/08/08 15:59:31;;;;;;;3.30;2.30;;;;;;;;;;10189460;29;20075;-80
2022/08/08 16:04:56;;;;;;;3.17;2.35;;;;;;;;;;10193842;29;20126;-80
2022/08/08 16:10:00;;;;;;;3.70;2.13;;;;;;;;;;10193752;29;20043;-80
2022/08/08 16:15:24;;;;;;;5.38;2.50;;;;;;;;;;10191177;29;20046;-79
2022/08/08 16:20:35;;;;;;;4.68;2.70;;;;;;;;;;10195723;29;20039;-80
2022/08/08 16:25:38;;;;;;;5.03;2.97;;;;;;;;;;10190920;29;20672;-80
2022/08/08 16:30:56;;;;;;;2.75;2.38;;;;;;;;;;10203886;29;20040;-81
2022/08/08 16:36:01;;;;;;;3.17;2.10;;;;;;;;;;10201945;29;20043;-81
2022/08/08 16:41:07;;;;;;;3.42;2.22;;;;;;;;;;10199471;29;20036;-81
2022/08/08 16:46:10;;;;;;;4.28;2.40;;;;;;;;;;10196799;29;20039;-81
2022/08/08 16:51:36;;;;;;;4.13;2.35;;;;;;;;;;10198766;29;20047;-81
2022/08/08 16:56:59;;;;;;;4.65;2.28;;;;;;;;;;10197566;29;20032;-81
2022/08/08 17:02:22;;;;;;;4.53;2.45;;;;;;;;;;10195014;29;20046;-81
2022/08/08 17:07:42;;;;;;;4.38;2.58;;;;;;;;;;10197500;29;20047;-80
2022/08/08 17:12:50;;;;;;;2.92;2.55;;;;;;;;;;10196976;29;20046;-80
2022/08/08 17:17:55;;;;;;;4.25;2.90;;;;;;;;;;10198102;29;20575;-80
2022/08/08 17:23:07;;;;;;;5.97;2.53;;;;;;;;;;10192970;29;20222;-80
2022/08/08 17:28:30;;;;;;;4.45;2.45;;;;;;;;;;10200801;29;20492;-81
2022/08/08 17:33:40;;;;;;;5.40;2.42;;;;;;;;;;10193335;29;20063;-80
2022/08/08 17:39:05;;;;;;;3.05;2.50;;;;;;;;;;10195998;29;20043;-79
2022/08/08 17:44:28;;;;;;;4.03;2.72;;;;;;;;;;10219657;28;20031;-82
2022/08/08 17:49:33;;;;;;;3.08;2.60;;;;;;;;;;10198887;29;20043;-80
2022/08/08 17:54:46;;;;;;;;;;;;;;;;;;10197956;29;20050;-80
2022/08/08 17:59:51;;;;;;;3.20;2.58;;;;;;;;;;10219782;28;19930;-79
2022/08/08 18:05:04;;;;;;;3.58;2.50;;;;;;;;;;10194469;29;20035;-81
2022/08/08 18:10:08;;;;;;;2.67;2.25;;;;;;;;;;10221565;28;20135;-80
2022/08/08 18:15:13;;;;;;;5.28;2.67;;;;;;;;;;10210004;29;20048;-80
2022/08/08 18:20:16;;;;;;;5.53;2.40;;;;;;;;;;10206264;29;20393;-79
2022/08/08 18:25:39;;;;;;;6.65;2.58;;;;;;;;;;10211686;29;20044;-80
2022/08/08 18:30:44;;;;;;;3.53;2.70;;;;;;;;;;10215934;29;20134;-79
2022/08/08 18:35:47;;;;;;;3.05;2.30;;;;;;;;;;10212777;29;20035;-79
2022/08/08 18:40:51;;;;;;;3.85;2.50;;;;;;;;;;10212138;29;20452;-79
2022/08/08 18:45:57;;;;;;;5.57;2.72;;;;;;;;;;10212037;29;20421;-79
2022/08/08 18:51:20;;;;;;;4.75;2.75;;;;;;;;;;10212959;29;20151;-79
2022/08/08 18:56:43;;;;;;;7.40;2.65;;;;;;;;;;10210831;29;20036;-78
2022/08/08 19:01:47;;;;;;;3.67;2.70;;;;;;;;;;10210329;29;20032;-80
2022/08/08 19:07:10;;;;;;;5.82;2.78;;;;;;;;;;10202770;29;20123;-79
2022/08/08 19:12:13;;;;;;;3.22;2.80;;;;;;;;;;10203421;29;20036;-79
2022/08/08 19:17:18;;;;;;;4.43;2.97;;;;;;;;;;10201218;29;20302;-79
2022/08/08 19:22:40;;;;;;;6.82;3.05;;;;;;;;;;10201674;29;20075;-80
2022/08/08 19:27:46;;;;;;;6.78;3.13;;;;;;;;;;10228434;28;20032;-81
2022/08/08 19:33:02;;;;;;;5.50;3.28;;;;;;;;;;10198469;29;20047;-80
2022/08/08 19:38:06;;;;;;;7.47;3.45;;;;;;;;;;10201699;29;20055;-82
2022/08/08 19:43:12;;;;;;;5.90;3.67;;;;;;;;;;10214605;29;20119;-82
2022/08/08 19:48:20;;;;;;;6.40;3.08;;;;;;;;;;10207453;29;20497;-79
2022/08/08 19:53:32;;;;;;;4.72;3.30;;;;;;;;;;10220794;28;20765;-77
2022/08/08 19:58:55;;;;;;;5.63;3.58;;;;;;;;;;10201258;29;20075;-79
2022/08/08 20:04:01;;;;;;;5.63;3.65;;;;;;;;;;10198513;29;20072;-78
2022/08/08 20:09:05;;;;;;;6.00;2.95;;;;;;;;;;10201781;29;20086;-76
2022/08/08 20:14:11;;;;;;;4.85;2.95;;;;;;;;;;10200077;29;20042;-76
2022/08/08 20:19:34;;;;;;;;;;;;;;;;;;10212796;29;20039;-79
2022/08/08 20:24:45;;;;;;;3.08;1.55;;;;;;;;;;10214562;29;19930;-78
2022/08/08 20:29:49;;;;;;;2.92;2.30;;;;;;;;;;10230235;28;20414;-78
2022/08/08 20:35:04;;;;;;;4.35;2.75;;;;;;;;;;10203344;29;20035;-78
2022/08/08 20:40:11;;;;;;;3.47;2.78;;;;;;;;;;10222858;28;20583;-78
2022/08/08 20:45:19;;;;;;;5.50;3.00;;;;;;;;;;10202817;28;20043;-77
2022/08/08 20:50:42;;;;;;;1.37;1.23;;;;;;;;;;10204180;29;20047;-79
2022/08/08 20:55:46;;;;;;;5.28;2.40;;;;;;;;;;10229391;28;20048;-78
2022/08/08 21:00:53;;;;;;;6.03;2.55;;;;;;;;;;10201515;29;20063;-78
2022/08/08 21:05:56;;;;;;;6.03;2.90;;;;;;;;;;10199318;29;20454;-79
2022/08/08 21:11:02;;;;;;;3.75;2.40;;;;;;;;;;10198046;29;20047;-79
2022/08/08 21:16:08;;;;;;;6.45;3.03;;;;;;;;;;10203131;29;20139;-78
2022/08/08 21:21:23;;;;;;;4.53;2.45;;;;;;;;;;10208110;29;20038;-77
2022/08/08 21:26:44;;;;;;;6.15;2.83;;;;;;;;;;10212000;29;20063;-80
2022/08/08 21:31:47;;;;;;;3.92;2.65;;;;;;;;;;10215436;29;20059;-77
2022/08/08 21:37:00;;;;;;;4.03;2.80;;;;;;;;;;10208434;29;20044;-79
2022/08/08 21:42:19;;;;;;;8.73;2.60;;;;;;;;;;10209963;29;20204;-78
2022/08/08 21:47:25;;;;;;;4.05;2.60;;;;;;;;;;10223801;28;20154;-78
2022/08/08 21:52:50;;;;;;;4.63;3.00;;;;;;;;;;10212001;28;20134;-80
2022/08/08 21:58:16;;;;;;;4.72;2.65;;;;;;;;;;10210450;28;21333;-78
2022/08/08 22:03:19;;;;;;;4.53;2.88;;;;;;;;;;10212805;29;20130;-78
2022/08/08 22:08:22;;;;;;;;;;;;;;;;;;10207134;29;20070;-78
2022/08/08 22:13:27;;;;;;;4.05;2.30;;;;;;;;;;10213117;29;19923;-78
2022/08/08 22:18:51;;;;;;;3.83;3.00;;;;;;;;;;10209238;29;20047;-79
2022/08/08 22:23:56;;;;;;;5.65;2.92;;;;;;;;;;10210087;29;20039;-79
2022/08/08 22:29:02;;;;;;;4.15;2.60;;;;;;;;;;10206498;29;20090;-78
2022/08/08 22:34:25;;;;;;;3.30;2.70;;;;;;;;;;10211282;29;20046;-78
2022/08/08 22:39:29;;;;;;;5.70;2.80;;;;;;;;;;10214626;29;20046;-78
2022/08/08 22:44:54;;;;;;;4.53;2.70;;;;;;;;;;10209282;29;20055;-77
2022/08/08 22:49:58;;;;;;;5.43;2.75;;;;;;;;;;10207704;29;20051;-77
2022/08/08 22:55:03;;;;;;;3.50;2.70;;;;;;;;;;10205024;29;20620;-78
2022/08/08 23:00:12;;;;;;;4.10;3.00;;;;;;;;;;10210327;29;20079;-78
2022/08/08 23:05:18;;;;;;;3.65;2.88;;;;;;;;;;10203026;29;20123;-76
2022/08/08 23:10:23;;;;;;;3.10;2.63;;;;;;;;;;10206504;29;20031;-77
2022/08/08 23:15:29;;;;;;;8.23;3.25;;;;;;;;;;10200917;29;20509;-78
2022/08/08 23:20:52;;;;;;;3.75;3.08;;;;;;;;;;10221769;28;20043;-77
2022/08/08 23:25:57;;;;;;;4.00;3.00;;;;;;;;;;10198424;29;20118;-78
2022/08/08 23:31:03;;;;;;;4.63;2.72;;;;;;;;;;10201725;29;20111;-78
2022/08/08 23:36:06;;;;;;;5.15;3.15;;;;;;;;;;10199666;29;20036;-78
2022/08/08 23:41:13;;;;;;;5.43;3.33;;;;;;;;;;10200261;29;20567;-77
2022/08/08 23:46:28;;;;;;;5.97;3.40;;;;;;;;;;10198692;29;20048;-78
2022/08/08 23:51:52;;;;;;;6.53;3.45;;;;;;;;;;10199929;29;20062;-77
2022/08/08 23:57:07;;;;;;;4.03;3.22;;;;;;;;;;10201705;29;20063;-77
